createdAt,value
2022-11-19T00:02:50.164Z,-3.63
2022-11-19T00:06:18.759Z,-3.68
2022-11-19T00:09:45.562Z,-3.73
2022-11-19T00:13:13.496Z,-3.76
2022-11-19T00:16:40.603Z,-3.81
2022-11-19T00:20:08.940Z,-3.86
2022-11-19T00:23:35.782Z,-3.90
2022-11-19T00:27:02.749Z,-3.95
2022-11-19T00:34:16.240Z,-4.06
2022-11-19T00:37:43.114Z,-4.12
2022-11-19T00:41:10.380Z,-4.17
2022-11-19T00:44:37.642Z,-4.26
2022-11-19T00:48:04.435Z,-4.32
2022-11-19T00:51:32.247Z,-4.36
2022-11-19T00:54:58.885Z,-4.40
2022-11-19T00:58:25.553Z,-4.44
2022-11-19T01:01:52.186Z,-4.47
2022-11-19T01:05:19.192Z,-4.50
2022-11-19T01:08:46.173Z,-4.54
2022-11-19T01:12:12.733Z,-4.57
2022-11-19T01:15:39.497Z,-4.60
2022-11-19T01:19:07.335Z,-4.62
2022-11-19T01:22:33.956Z,-4.66
2022-11-19T01:26:00.985Z,-4.70
2022-11-19T01:29:27.661Z,-4.74
2022-11-19T01:32:54.306Z,-4.77
2022-11-19T01:36:22.743Z,-4.80
2022-11-19T01:39:49.517Z,-4.83
2022-11-19T01:43:16.546Z,-4.87
2022-11-19T01:46:43.219Z,-4.91
2022-11-19T01:50:10.720Z,-4.95
2022-11-19T01:53:39.301Z,-5.01
2022-11-19T01:57:10.751Z,-5.05
2022-11-19T02:00:37.619Z,-5.10
2022-11-19T02:04:05.876Z,-5.13
2022-11-19T02:07:35.411Z,-5.15
2022-11-19T02:11:16.736Z,-5.18
2022-11-19T02:15:02.046Z,-5.20
2022-11-19T02:18:43.052Z,-5.22
2022-11-19T02:22:29.647Z,-5.26
2022-11-19T02:26:24.606Z,-5.29
2022-11-19T02:30:09.767Z,-5.37
2022-11-19T02:33:45.293Z,-5.45
2022-11-19T02:37:16.423Z,-5.51
2022-11-19T02:40:49.249Z,-5.56
2022-11-19T02:44:41.141Z,-5.61
2022-11-19T02:48:13.394Z,-5.66
2022-11-19T02:51:40.760Z,-5.71
2022-11-19T02:55:08.785Z,-5.77
2022-11-19T02:58:54.896Z,-5.80
2022-11-19T03:02:41.554Z,-5.84
2022-11-19T03:06:13.331Z,-5.86
2022-11-19T03:09:47.206Z,-5.88
2022-11-19T03:13:39.353Z,-5.89
2022-11-19T03:17:13.750Z,-5.90
2022-11-19T03:20:45.960Z,-5.92
2022-11-19T03:24:19.516Z,-5.94
2022-11-19T03:27:49.708Z,-5.98
2022-11-19T03:31:19.861Z,-6.01
2022-11-19T03:34:50.386Z,-6.06
2022-11-19T03:38:32.013Z,-6.09
2022-11-19T03:41:59.439Z,-6.12
2022-11-19T03:45:30.793Z,-6.16
2022-11-19T03:49:00.573Z,-6.19
2022-11-19T03:52:27.377Z,-6.21
2022-11-19T03:55:58.877Z,-6.24
2022-11-19T03:59:29.660Z,-6.27
2022-11-19T04:02:56.956Z,-6.31
2022-11-19T04:06:23.734Z,-6.36
2022-11-19T04:09:50.756Z,-6.42
2022-11-19T04:13:17.420Z,-6.50
2022-11-19T04:16:44.437Z,-6.56
2022-11-19T04:20:12.501Z,-6.61
2022-11-19T04:23:39.144Z,-6.69
2022-11-19T04:27:05.750Z,-6.74
2022-11-19T04:30:32.416Z,-6.79
2022-11-19T04:33:59.327Z,-6.85
2022-11-19T04:37:25.933Z,-6.90
2022-11-19T04:40:52.526Z,-6.93
2022-11-19T04:44:19.437Z,-6.96
2022-11-19T04:47:46.219Z,-6.99
2022-11-19T04:51:13.087Z,-7.01
2022-11-19T04:54:40.585Z,-7.02
2022-11-19T04:58:07.199Z,-7.04
2022-11-19T05:01:34.247Z,-7.05
2022-11-19T05:05:01.002Z,-7.07
2022-11-19T05:19:38.579Z,-6.76
2022-11-19T05:23:05.593Z,-6.71
2022-11-19T05:26:32.209Z,-6.78
2022-11-19T05:29:58.821Z,-6.85
2022-11-19T05:33:28.681Z,-6.92
2022-11-19T05:36:57.999Z,-6.98
2022-11-19T05:40:25.088Z,-7.04
2022-11-19T05:43:51.760Z,-7.07
2022-11-19T05:47:20.042Z,-7.11
2022-11-19T05:50:46.971Z,-7.12
2022-11-19T05:54:15.253Z,-7.11
2022-11-19T05:57:41.918Z,-7.11
2022-11-19T06:01:09.921Z,-7.13
2022-11-19T06:14:26.393Z,-7.16
2022-11-19T06:17:53.242Z,-7.19
2022-11-19T06:21:19.890Z,-7.17
2022-11-19T06:24:47.089Z,-7.16
2022-11-19T06:28:13.799Z,-7.14
2022-11-19T06:31:40.815Z,-7.13
2022-11-19T06:35:08.845Z,-7.11
2022-11-19T06:38:36.207Z,-7.08
2022-11-19T06:42:16.821Z,-7.00
2022-11-19T06:45:43.624Z,-6.85
2022-11-19T06:49:19.599Z,-6.69
2022-11-19T06:52:47.054Z,-6.52
2022-11-19T06:56:14.126Z,-6.33
2022-11-19T06:59:40.927Z,-6.14
2022-11-19T07:03:07.666Z,-5.94
2022-11-19T07:06:34.291Z,-5.72
2022-11-19T07:10:01.181Z,-5.46
2022-11-19T07:13:48.764Z,-5.21
2022-11-19T07:17:15.579Z,-4.89
2022-11-19T07:20:42.611Z,-4.58
2022-11-19T07:24:11.783Z,-4.28
2022-11-19T07:27:38.635Z,-4.01
2022-11-19T07:31:09.225Z,-3.79
2022-11-19T07:34:35.870Z,-3.56
2022-11-19T07:38:02.514Z,-3.36
2022-11-19T07:41:47.081Z,-3.23
2022-11-19T07:45:14.044Z,-3.14
2022-11-19T07:48:40.700Z,-3.06
2022-11-19T07:52:07.452Z,-2.97
2022-11-19T07:55:34.374Z,-2.86
2022-11-19T07:59:04.719Z,-2.73
2022-11-19T08:02:32.202Z,-2.59
2022-11-19T08:05:58.993Z,-2.43
2022-11-19T08:09:25.661Z,-2.29
2022-11-19T08:13:03.268Z,-2.16
2022-11-19T08:16:47.917Z,-2.04
2022-11-19T08:20:15.058Z,-1.94
2022-11-19T08:23:42.176Z,-1.85
2022-11-19T08:27:09.245Z,-1.77
2022-11-19T08:30:36.215Z,-1.70
2022-11-19T08:34:03.782Z,-1.62
2022-11-19T08:37:30.775Z,-1.53
2022-11-19T08:41:12.287Z,-1.47
2022-11-19T08:44:38.880Z,-1.41
2022-11-19T08:48:10.333Z,-1.36
2022-11-19T08:51:37.110Z,-1.29
2022-11-19T08:55:03.818Z,-1.22
2022-11-19T08:58:30.400Z,-1.21
2022-11-19T09:01:57.123Z,-1.19
2022-11-19T09:05:24.578Z,-1.15
2022-11-19T09:08:51.871Z,-1.11
2022-11-19T09:12:18.780Z,-1.06
2022-11-19T09:15:49.046Z,-1.03
2022-11-19T09:19:15.812Z,-0.95
2022-11-19T09:22:42.880Z,-0.86
2022-11-19T09:26:13.432Z,-0.76
2022-11-19T09:29:40.185Z,-0.67
2022-11-19T09:33:06.771Z,-0.57
2022-11-19T09:36:33.399Z,-0.44
2022-11-19T09:40:00.080Z,-0.33
2022-11-19T09:43:43.439Z,-0.17
2022-11-19T09:47:24.116Z,0.03
2022-11-19T09:50:55.166Z,0.25
2022-11-19T09:54:24.399Z,0.45
2022-11-19T09:57:54.120Z,0.68
2022-11-19T10:01:20.083Z,0.92
2022-11-19T10:04:48.558Z,1.09
2022-11-19T10:08:29.754Z,1.15
2022-11-19T10:12:08.026Z,1.21
2022-11-19T10:15:39.225Z,1.43
2022-11-19T10:19:15.353Z,1.68
2022-11-19T10:22:56.936Z,1.84
2022-11-19T10:26:33.701Z,1.94
2022-11-19T10:30:05.449Z,1.89
2022-11-19T10:33:36.344Z,1.79
2022-11-19T10:37:09.740Z,1.80
2022-11-19T10:40:42.309Z,1.82
2022-11-19T10:44:35.434Z,1.91
2022-11-19T10:48:09.313Z,1.99
2022-11-19T10:51:43.208Z,2.04
2022-11-19T10:55:19.871Z,2.17
2022-11-19T10:58:51.510Z,2.32
2022-11-19T11:02:28.435Z,2.25
2022-11-19T11:06:02.042Z,2.27
2022-11-19T11:09:34.916Z,2.38
2022-11-19T11:13:35.269Z,2.31
2022-11-19T11:17:03.113Z,2.18
2022-11-19T11:20:32.160Z,2.11
2022-11-19T11:24:00.676Z,1.97
2022-11-19T11:27:33.710Z,1.81
2022-11-19T11:31:02.478Z,1.65
2022-11-19T11:34:34.436Z,1.54
2022-11-19T11:38:02.997Z,1.48
2022-11-19T11:42:04.694Z,1.42
2022-11-19T11:45:33.560Z,1.34
2022-11-19T11:49:06.885Z,1.27
2022-11-19T11:52:41.898Z,1.18
2022-11-19T11:56:11.449Z,1.12
2022-11-19T11:59:38.588Z,1.03
2022-11-19T12:03:07.279Z,0.92
2022-11-19T12:06:42.685Z,0.81
2022-11-19T12:10:21.919Z,0.71
2022-11-19T12:13:58.388Z,0.61
2022-11-19T12:17:38.698Z,0.56
2022-11-19T12:21:12.196Z,0.53
2022-11-19T12:24:56.491Z,0.52
2022-11-19T12:28:33.087Z,0.55
2022-11-19T12:32:22.357Z,0.56
2022-11-19T12:35:57.754Z,0.53
2022-11-19T12:39:37.571Z,0.49
2022-11-19T12:43:16.178Z,0.47
2022-11-19T12:46:52.018Z,0.49
2022-11-19T12:50:27.063Z,0.50
2022-11-19T12:54:22.419Z,0.46
2022-11-19T12:58:02.843Z,0.32
2022-11-19T13:01:34.205Z,0.13
2022-11-19T13:05:07.621Z,-0.03
2022-11-19T13:08:39.194Z,-0.15
2022-11-19T13:12:09.528Z,-0.27
2022-11-19T13:15:41.216Z,-0.39
2022-11-19T13:19:21.105Z,-0.49
2022-11-19T13:22:51.858Z,-0.59
2022-11-19T13:26:21.765Z,-0.68
2022-11-19T13:29:54.129Z,-0.75
2022-11-19T13:33:23.976Z,-0.81
2022-11-19T13:36:59.712Z,-0.84
2022-11-19T13:40:31.731Z,-0.90
2022-11-19T13:44:22.766Z,-0.95
2022-11-19T13:47:58.120Z,-0.98
2022-11-19T13:51:31.671Z,-1.01
2022-11-19T13:55:00.719Z,-1.04
2022-11-19T13:58:33.909Z,-1.06
2022-11-19T14:02:21.836Z,-1.10
2022-11-19T14:06:08.700Z,-1.12
2022-11-19T14:09:45.705Z,-1.14
2022-11-19T14:13:34.932Z,-1.16
2022-11-19T14:17:25.175Z,-1.18
2022-11-19T14:21:09.749Z,-1.19
2022-11-19T14:25:12.271Z,-1.18
2022-11-19T14:28:56.966Z,-1.18
2022-11-19T14:32:31.858Z,-1.19
2022-11-19T14:35:58.596Z,-1.20
2022-11-19T14:39:29.794Z,-1.22
2022-11-19T14:43:46.424Z,-1.23
2022-11-19T14:47:35.034Z,-1.25
2022-11-19T14:51:07.428Z,-1.27
2022-11-19T14:54:43.997Z,-1.28
2022-11-19T14:58:24.380Z,-1.30
2022-11-19T15:02:02.568Z,-1.32
2022-11-19T15:05:34.571Z,-1.33
2022-11-19T15:09:02.243Z,-1.35
2022-11-19T15:12:46.654Z,-1.37
2022-11-19T15:16:16.045Z,-1.37
2022-11-19T15:19:51.862Z,-1.38
2022-11-19T15:23:27.146Z,-1.41
2022-11-19T15:27:01.409Z,-1.41
2022-11-19T15:30:41.813Z,-1.41
2022-11-19T15:34:38.472Z,-1.42
2022-11-19T15:38:31.046Z,-1.43
2022-11-19T15:42:02.303Z,-1.43
2022-11-19T15:45:32.565Z,-1.43
2022-11-19T15:49:07.365Z,-1.44
2022-11-19T15:52:34.678Z,-1.44
2022-11-19T15:56:04.070Z,-1.44
2022-11-19T15:59:33.944Z,-1.43
2022-11-19T16:03:01.982Z,-1.42
2022-11-19T16:06:30.475Z,-1.44
2022-11-19T16:09:58.108Z,-1.44
2022-11-19T16:13:43.949Z,-1.46
2022-11-19T16:17:41.734Z,-1.47
2022-11-19T16:21:10.121Z,-1.47
2022-11-19T16:24:54.577Z,-1.48
2022-11-19T16:28:30.466Z,-1.50
2022-11-19T16:32:00.597Z,-1.50
2022-11-19T16:35:29.733Z,-1.52
2022-11-19T16:38:57.288Z,-1.52
2022-11-19T16:42:42.284Z,-1.51
2022-11-19T16:46:11.423Z,-1.51
2022-11-19T16:49:52.751Z,-1.51
2022-11-19T16:53:48.545Z,-1.50
2022-11-19T16:57:19.241Z,-1.48
2022-11-19T17:00:49.779Z,-1.46
2022-11-19T17:04:16.711Z,-1.43
2022-11-19T17:07:48.087Z,-1.42
2022-11-19T17:11:38.576Z,-1.40
2022-11-19T17:15:36.772Z,-1.39
2022-11-19T17:19:13.990Z,-1.36
2022-11-19T17:22:41.781Z,-1.34
2022-11-19T17:26:09.548Z,-1.33
2022-11-19T17:29:36.274Z,-1.32
2022-11-19T17:33:05.772Z,-1.31
2022-11-19T17:36:33.489Z,-1.30
2022-11-19T17:40:00.197Z,-1.29
2022-11-19T17:43:49.095Z,-1.28
2022-11-19T17:47:22.862Z,-1.27
2022-11-19T17:50:51.633Z,-1.26
2022-11-19T17:54:18.719Z,-1.25
2022-11-19T17:57:45.939Z,-1.25
2022-11-19T18:01:13.575Z,-1.25
2022-11-19T18:04:40.245Z,-1.26
2022-11-19T18:08:07.268Z,-1.27
2022-11-19T18:11:34.386Z,-1.28
2022-11-19T18:15:02.327Z,-1.28
2022-11-19T18:18:29.198Z,-1.29
2022-11-19T18:21:56.230Z,-1.29
2022-11-19T18:25:23.496Z,-1.30
2022-11-19T18:28:50.271Z,-1.31
2022-11-19T18:32:17.247Z,-1.32
2022-11-19T18:35:44.279Z,-1.33
2022-11-19T18:39:10.907Z,-1.34
2022-11-19T18:42:37.535Z,-1.35
2022-11-19T18:46:04.099Z,-1.35
2022-11-19T18:49:30.859Z,-1.36
2022-11-19T18:52:57.463Z,-1.35
2022-11-19T18:56:24.403Z,-1.35
2022-11-19T18:59:51.011Z,-1.35
2022-11-19T19:03:17.678Z,-1.34
2022-11-19T19:06:44.726Z,-1.33
2022-11-19T19:10:13.883Z,-1.32
2022-11-19T19:13:40.541Z,-1.31
2022-11-19T19:17:07.469Z,-1.30
2022-11-19T19:20:36.078Z,-1.30
2022-11-19T19:24:05.205Z,-1.29
2022-11-19T19:27:31.814Z,-1.30
2022-11-19T19:31:01.072Z,-1.31
2022-11-19T19:34:29.026Z,-1.30
2022-11-19T19:37:56.145Z,-1.31
2022-11-19T19:41:25.333Z,-1.31
2022-11-19T19:44:50.737Z,-1.31
2022-11-19T19:48:17.533Z,-1.31
2022-11-19T19:51:44.413Z,-1.31
2022-11-19T19:55:11.870Z,-1.30
2022-11-19T19:58:38.967Z,-1.31
2022-11-19T20:02:05.707Z,-1.30
2022-11-19T20:05:32.813Z,-1.31
2022-11-19T20:09:03.179Z,-1.32
2022-11-19T20:12:47.514Z,-1.31
2022-11-19T20:16:19.570Z,-1.32
2022-11-19T20:19:46.487Z,-1.32
2022-11-19T20:23:13.302Z,-1.32
2022-11-19T20:26:40.502Z,-1.32
2022-11-19T20:30:09.594Z,-1.33
2022-11-19T20:33:37.135Z,-1.33
2022-11-19T20:37:04.244Z,-1.33
2022-11-19T20:40:31.268Z,-1.33
2022-11-19T20:44:15.426Z,-1.33
2022-11-19T20:47:42.517Z,-1.32
2022-11-19T20:51:09.724Z,-1.32
2022-11-19T20:54:37.038Z,-1.31
2022-11-19T20:58:03.781Z,-1.31
2022-11-19T21:01:31.547Z,-1.29
2022-11-19T21:04:58.329Z,-1.27
2022-11-19T21:08:25.431Z,-1.25
2022-11-19T21:11:52.393Z,-1.23
2022-11-19T21:15:19.280Z,-1.22
2022-11-19T21:18:46.430Z,-1.20
2022-11-19T21:22:13.421Z,-1.20
2022-11-19T21:25:40.097Z,-1.18
2022-11-19T21:29:07.075Z,-1.18
2022-11-19T21:32:33.915Z,-1.18
2022-11-19T21:36:03.278Z,-1.19
2022-11-19T21:39:30.016Z,-1.20
2022-11-19T21:42:56.728Z,-1.22
2022-11-19T21:46:23.633Z,-1.22
2022-11-19T21:49:50.393Z,-1.21
2022-11-19T21:53:18.539Z,-1.20
2022-11-19T21:56:45.412Z,-1.20
2022-11-19T22:00:14.474Z,-1.20
2022-11-19T22:03:42.317Z,-1.21
2022-11-19T22:07:09.585Z,-1.21
2022-11-19T22:10:38.338Z,-1.20
2022-11-19T22:14:09.598Z,-1.18
2022-11-19T22:17:37.061Z,-1.16
2022-11-19T22:21:04.984Z,-1.13
2022-11-19T22:24:32.439Z,-1.11
2022-11-19T22:27:59.068Z,-1.09
2022-11-19T22:31:26.030Z,-1.06
2022-11-19T22:34:53.044Z,-1.02
2022-11-19T22:38:19.748Z,-0.99
2022-11-19T22:41:46.721Z,-0.96
2022-11-19T22:45:13.663Z,-0.94
2022-11-19T22:48:40.876Z,-0.92
2022-11-19T22:52:07.921Z,-0.89
2022-11-19T22:55:37.116Z,-0.88
2022-11-19T22:59:04.949Z,-0.86
2022-11-19T23:02:32.795Z,-0.85
2022-11-19T23:06:00.316Z,-0.84
2022-11-19T23:09:26.932Z,-0.83
2022-11-19T23:13:11.520Z,-0.82
2022-11-19T23:16:38.793Z,-0.81
2022-11-19T23:20:06.694Z,-0.81
2022-11-19T23:23:33.638Z,-0.82
2022-11-19T23:27:00.380Z,-0.82
2022-11-19T23:30:27.095Z,-0.81
2022-11-19T23:33:58.981Z,-0.82
2022-11-19T23:37:26.472Z,-0.82
2022-11-19T23:41:01.088Z,-0.82
2022-11-19T23:44:28.054Z,-0.83
2022-11-19T23:47:54.634Z,-0.83
2022-11-19T23:51:23.897Z,-0.85
2022-11-19T23:54:50.583Z,-0.87
2022-11-19T23:58:17.301Z,-0.88
